Portada
METAR-TAF:

METAR-TAF

Aeropuertos :

Lérida, España

Lleida-Alguaire

latitud: 41-43-40N, longitud: 000-32-09E, altitud: 350 m

METAR: falta

Hora: 20:26 (18:26 UTC)

Pronóstico

El informe se hizo hace 28 horas y 26 minutos, a las 14:00 UTC
Pronóstico válido del 22 a las 15 UTC al 23 a las 15 UTC
Viento 10 kt del este
Visibilidad 10 km o más
Escasas nubes a una altura de 2500 ft
Cielo nuboso a una altura de 4000 ft
Evolucionando progresivamente
del 22 a las 18 UTC al 22 a las 20 UTC
Viento 4 kt con dirección variable
Probabilidad 30% :
Temporalmente
del 22 a las 15 UTC al 22 a las 18 UTC
Visibilidad: 4000 m
Cielo nuboso a una altura de 1500 ft
Escasas nubes a una altura de 3000 ft, Cumulonimbus.
tormenta, lluvia

TAF: LEDA 221400Z 2215/2315 10010KT 9999 FEW025 BKN040 TX27/2314Z TN12/2306Z BECMG 2218/2220 VRB04KT PROB30 TEMPO 2215/2218 4000 TSRA BKN015 FEW030CB

Observaciones y pronósticos meteorológicos de más de 4000 aeropuertos (mensajes METAR y TAF).

Los puntos amarillos y rojos representan las estaciones disponibles.

Ponga el ratón en el punto deseado para ver el nombre de la estación.

Haga clic para ver las observaciones y los pronósticos meteorológicos.

Para cambiar el mapa : haga clic en los botones verdes con una cruz de color negro para hacer un zoom, en el botón verde con un guión para alejar o en las flechas verdes para mapas adyacentes.


METAR-TAF: